createdAt,value
2018-07-22T00:00:17.882Z,9.73
2018-07-22T00:02:46.764Z,9.73
2018-07-22T00:05:15.770Z,9.63
2018-07-22T00:07:44.681Z,10.10
2018-07-22T00:10:30.533Z,9.37
2018-07-22T00:13:00.384Z,9.20
2018-07-22T00:15:29.311Z,10.07
2018-07-22T00:17:58.216Z,10.50
2018-07-22T00:20:27.141Z,10.10
2018-07-22T00:22:56.057Z,9.73
2018-07-22T00:25:24.950Z,10.40
2018-07-22T00:27:53.917Z,10.50
2018-07-22T00:30:22.827Z,9.67
2018-07-22T00:32:51.759Z,10.10
2018-07-22T00:35:20.691Z,9.90
2018-07-22T00:37:49.609Z,10.07
2018-07-22T00:40:18.487Z,9.33
2018-07-22T00:42:47.411Z,9.77
2018-07-22T00:45:16.308Z,10.33
2018-07-22T00:47:45.221Z,10.20
2018-07-22T00:50:14.184Z,10.07
2018-07-22T00:52:43.105Z,10.27
2018-07-22T00:55:12.037Z,10.50
2018-07-22T00:57:40.976Z,10.00
2018-07-22T01:00:09.899Z,9.77
2018-07-22T01:02:38.780Z,11.20
2018-07-22T01:05:07.971Z,10.67
2018-07-22T01:07:36.933Z,10.30
2018-07-22T01:10:06.082Z,10.47
2018-07-22T01:12:35.056Z,10.30
2018-07-22T01:15:03.989Z,9.80
2018-07-22T01:17:32.919Z,9.77
2018-07-22T01:20:01.852Z,10.80
2018-07-22T01:22:30.736Z,10.70
2018-07-22T01:24:59.758Z,10.73
2018-07-22T01:27:28.669Z,11.00
2018-07-22T01:29:58.277Z,11.33
2018-07-22T01:32:27.204Z,10.30
2018-07-22T01:34:56.117Z,10.63
2018-07-22T01:37:25.044Z,11.03
2018-07-22T01:39:53.946Z,11.93
2018-07-22T01:42:22.992Z,10.83
2018-07-22T01:44:51.912Z,11.50
2018-07-22T01:47:20.873Z,11.00
2018-07-22T01:49:51.892Z,10.70
2018-07-22T01:52:20.786Z,11.03
2018-07-22T01:54:49.722Z,12.17
2018-07-22T01:57:18.664Z,11.43
2018-07-22T01:59:47.553Z,11.07
2018-07-22T02:02:16.797Z,11.07
2018-07-22T02:04:45.733Z,10.23
2018-07-22T02:07:14.639Z,10.47
2018-07-22T02:09:43.559Z,10.70
2018-07-22T02:12:12.474Z,9.90
2018-07-22T02:14:41.418Z,10.17
2018-07-22T02:17:10.343Z,10.93
2018-07-22T02:19:39.272Z,9.87
2018-07-22T02:22:08.155Z,11.17
2018-07-22T02:24:37.083Z,10.50
2018-07-22T02:27:06.007Z,10.33
2018-07-22T02:29:34.905Z,10.00
2018-07-22T02:32:03.861Z,9.83
2018-07-22T02:34:32.787Z,11.50
2018-07-22T02:37:01.700Z,10.40
2018-07-22T02:39:30.605Z,11.03
2018-07-22T02:41:59.521Z,11.23
2018-07-22T02:44:28.677Z,10.33
2018-07-22T02:46:57.885Z,10.20
2018-07-22T02:49:27.006Z,10.07
2018-07-22T02:51:56.319Z,10.67
2018-07-22T02:54:25.242Z,10.70
2018-07-22T02:56:54.239Z,11.00
2018-07-22T02:59:23.151Z,10.97
2018-07-22T03:01:52.040Z,10.27
2018-07-22T03:04:20.967Z,11.17
2018-07-22T03:06:49.916Z,11.40
2018-07-22T03:09:18.847Z,12.07
2018-07-22T03:11:47.768Z,11.10
2018-07-22T03:14:16.659Z,12.00
2018-07-22T03:16:45.641Z,11.30
2018-07-22T03:19:14.555Z,12.90
2018-07-22T03:21:43.466Z,12.17
2018-07-22T03:24:12.369Z,11.43
2018-07-22T03:26:41.324Z,13.23
2018-07-22T03:29:10.289Z,12.77
2018-07-22T03:31:39.232Z,13.47
2018-07-22T03:34:08.400Z,12.57
2018-07-22T03:36:37.276Z,13.20
2018-07-22T03:39:08.122Z,13.50
2018-07-22T03:41:37.108Z,12.40
2018-07-22T03:44:06.167Z,13.60
2018-07-22T03:46:35.301Z,12.90
2018-07-22T03:49:04.237Z,14.30
2018-07-22T03:51:33.143Z,13.60
2018-07-22T03:54:02.032Z,12.80
2018-07-22T03:56:30.949Z,13.40
2018-07-22T03:58:59.866Z,14.13
2018-07-22T04:01:28.779Z,13.03
2018-07-22T04:03:57.735Z,12.53
2018-07-22T04:06:26.617Z,13.53
2018-07-22T04:08:55.531Z,13.17
2018-07-22T04:11:24.423Z,13.37
2018-07-22T04:13:53.348Z,13.20
2018-07-22T04:16:22.261Z,13.17
2018-07-22T04:18:52.931Z,13.10
2018-07-22T04:21:23.365Z,13.07
2018-07-22T04:23:52.399Z,13.10
2018-07-22T04:26:22.127Z,13.87
2018-07-22T04:28:51.569Z,13.37
2018-07-22T04:31:20.966Z,12.60
2018-07-22T04:33:49.966Z,14.10
2018-07-22T04:36:18.888Z,14.90
2018-07-22T04:38:47.906Z,15.57
2018-07-22T04:41:16.817Z,16.20
2018-07-22T04:43:45.706Z,15.27
2018-07-22T04:46:14.639Z,16.37
2018-07-22T04:48:43.547Z,16.63
2018-07-22T04:51:12.477Z,17.20
2018-07-22T04:53:41.413Z,17.47
2018-07-22T04:56:10.322Z,17.53
2018-07-22T04:58:39.222Z,18.03
2018-07-22T05:01:08.137Z,18.50
2018-07-22T05:03:37.030Z,17.63
2018-07-22T05:06:05.955Z,19.90
2018-07-22T05:08:34.863Z,18.93
2018-07-22T05:11:03.776Z,18.87
2018-07-22T05:13:32.669Z,18.90
2018-07-22T05:16:01.577Z,19.23
2018-07-22T05:18:30.467Z,19.30
2018-07-22T05:20:59.374Z,20.13
2018-07-22T05:23:29.113Z,20.07
2018-07-22T05:25:58.034Z,21.37
2018-07-22T05:28:30.397Z,20.83
2018-07-22T05:30:59.415Z,20.17
2018-07-22T05:33:28.343Z,20.63
2018-07-22T05:35:57.340Z,20.17
2018-07-22T05:38:29.423Z,20.00
2018-07-22T05:40:58.298Z,19.37
2018-07-22T05:43:27.209Z,20.87
2018-07-22T05:45:56.142Z,20.67
2018-07-22T05:48:25.049Z,21.20
2018-07-22T05:50:53.984Z,20.50
2018-07-22T05:53:22.906Z,21.33
2018-07-22T05:55:51.852Z,22.00
2018-07-22T05:58:20.776Z,20.60
2018-07-22T06:00:49.711Z,21.00
2018-07-22T06:03:18.619Z,19.87
2018-07-22T06:05:47.836Z,21.07
2018-07-22T06:08:16.897Z,20.03
2018-07-22T06:10:48.967Z,19.43
2018-07-22T06:13:17.930Z,19.77
2018-07-22T06:15:46.841Z,19.40
2018-07-22T06:18:15.760Z,20.93
2018-07-22T06:20:44.672Z,19.90
2018-07-22T06:23:15.575Z,17.53
2018-07-22T06:25:44.540Z,18.50
2018-07-22T06:28:13.466Z,18.37
2018-07-22T06:30:42.461Z,18.53
2018-07-22T06:33:11.391Z,19.30
2018-07-22T06:35:40.330Z,18.07
2018-07-22T06:38:09.364Z,17.40
2018-07-22T06:40:38.226Z,17.17
2018-07-22T06:43:07.179Z,17.90
2018-07-22T06:45:36.151Z,15.90
2018-07-22T06:48:05.339Z,15.50
2018-07-22T06:50:34.279Z,16.73
2018-07-22T06:53:03.247Z,14.87
2018-07-22T06:55:32.170Z,15.60
2018-07-22T06:58:01.529Z,15.40
2018-07-22T07:00:30.585Z,15.50
2018-07-22T07:02:59.805Z,14.23
2018-07-22T07:05:29.043Z,13.50
2018-07-22T07:07:57.987Z,13.87
2018-07-22T07:10:26.923Z,13.10
2018-07-22T07:12:55.826Z,13.97
2018-07-22T07:15:24.808Z,12.40
2018-07-22T07:17:53.734Z,12.40
2018-07-22T07:20:23.640Z,11.20
2018-07-22T07:22:52.643Z,12.57
2018-07-22T07:25:21.569Z,11.70
2018-07-22T07:27:50.507Z,10.67
2018-07-22T07:30:19.419Z,12.30
2018-07-22T07:32:48.337Z,11.27
2018-07-22T07:35:17.260Z,12.07
2018-07-22T07:37:46.166Z,11.93
2018-07-22T07:40:15.094Z,11.40
2018-07-22T07:42:44.043Z,11.57
2018-07-22T07:45:12.996Z,10.93
2018-07-22T07:47:42.173Z,11.63
2018-07-22T07:50:11.137Z,10.60
2018-07-22T07:52:40.074Z,9.17
2018-07-22T07:55:08.973Z,9.63
2018-07-22T07:57:38.374Z,9.97
2018-07-22T08:00:07.507Z,9.67
2018-07-22T08:02:36.407Z,9.23
2018-07-22T08:05:05.532Z,8.93
2018-07-22T08:07:34.504Z,9.60
2018-07-22T08:10:05.342Z,9.40
2018-07-22T08:12:34.460Z,8.17
2018-07-22T08:15:03.522Z,9.03
2018-07-22T08:17:32.477Z,8.80
2018-07-22T08:20:01.649Z,8.00
2018-07-22T08:22:30.580Z,7.67
2018-07-22T08:24:59.517Z,8.37
2018-07-22T08:27:28.477Z,7.00
2018-07-22T08:29:57.415Z,7.67
2018-07-22T08:32:26.322Z,6.93
2018-07-22T08:34:55.277Z,6.37
2018-07-22T08:37:24.267Z,6.57
2018-07-22T08:39:53.181Z,5.90
2018-07-22T08:42:22.092Z,5.83
2018-07-22T08:44:51.061Z,5.93
2018-07-22T08:55:47.122Z,6.83
2018-07-22T09:00:53.655Z,6.13
2018-07-22T09:03:22.572Z,6.73
2018-07-22T09:05:51.554Z,6.10
2018-07-22T09:08:20.542Z,5.77
2018-07-22T09:10:49.397Z,5.77
2018-07-22T09:13:18.320Z,5.40
2018-07-22T09:15:47.248Z,4.87
2018-07-22T09:18:16.150Z,5.80
2018-07-22T09:20:45.050Z,7.00
2018-07-22T09:23:13.968Z,6.07
2018-07-22T09:25:46.263Z,6.17
2018-07-22T09:28:15.163Z,4.93
2018-07-22T09:30:44.097Z,5.97
2018-07-22T09:33:13.017Z,5.67
2018-07-22T09:35:42.177Z,4.80
2018-07-22T09:38:11.761Z,5.10
2018-07-22T09:40:41.035Z,5.33
2018-07-22T09:43:10.347Z,4.57
2018-07-22T09:45:39.308Z,4.80
2018-07-22T09:48:08.228Z,5.27
2018-07-22T09:50:37.201Z,4.80
2018-07-22T09:53:06.165Z,4.70
2018-07-22T09:55:35.046Z,4.80
2018-07-22T09:58:03.965Z,4.90
2018-07-22T10:00:38.094Z,4.63
2018-07-22T10:03:07.117Z,4.33
2018-07-22T10:05:36.587Z,4.00
2018-07-22T10:08:05.649Z,5.37
2018-07-22T10:10:34.535Z,4.43
2018-07-22T10:13:03.480Z,5.17
2018-07-22T10:15:32.509Z,4.60
2018-07-22T10:18:01.455Z,4.17
2018-07-22T10:20:30.375Z,4.67
2018-07-22T10:22:59.282Z,4.70
2018-07-22T10:25:28.179Z,4.60
2018-07-22T10:27:57.234Z,4.90
2018-07-22T10:30:26.176Z,4.73
2018-07-22T10:32:55.080Z,5.30
2018-07-22T10:35:24.070Z,4.83
2018-07-22T10:37:53.005Z,5.23
2018-07-22T10:40:21.905Z,5.80
2018-07-22T10:42:50.823Z,4.83
2018-07-22T10:45:19.733Z,5.30
2018-07-22T10:47:48.621Z,5.20
2018-07-22T10:50:17.598Z,4.90
2018-07-22T10:52:46.501Z,5.10
2018-07-22T10:55:15.431Z,5.10
2018-07-22T10:57:44.301Z,5.27
2018-07-22T11:00:13.261Z,4.70
2018-07-22T11:02:42.217Z,5.17
2018-07-22T11:05:11.121Z,5.63
2018-07-22T11:07:40.018Z,5.40
2018-07-22T11:10:08.928Z,5.70
2018-07-22T11:12:37.885Z,5.53
2018-07-22T11:15:07.421Z,5.60
2018-07-22T11:17:36.305Z,5.57
2018-07-22T11:20:05.370Z,5.50
2018-07-22T11:22:34.364Z,6.30
2018-07-22T11:25:03.341Z,5.10
2018-07-22T11:27:32.274Z,5.87
2018-07-22T11:30:01.251Z,6.07
2018-07-22T11:32:30.178Z,6.00
2018-07-22T11:34:59.049Z,6.47
2018-07-22T11:37:27.982Z,6.43
2018-07-22T11:39:56.959Z,7.07
2018-07-22T11:42:25.825Z,6.53
2018-07-22T11:44:54.740Z,6.03
2018-07-22T11:47:23.732Z,6.17
2018-07-22T11:49:52.640Z,5.97
2018-07-22T11:52:21.534Z,6.40
2018-07-22T11:54:50.690Z,6.47
2018-07-22T11:57:19.592Z,5.50
2018-07-22T11:59:48.505Z,5.73
2018-07-22T12:02:20.642Z,5.73
2018-07-22T12:04:49.549Z,5.77
2018-07-22T12:07:18.460Z,5.83
2018-07-22T12:09:47.339Z,5.60
2018-07-22T12:12:16.246Z,5.77
2018-07-22T12:14:45.127Z,5.77
2018-07-22T12:17:14.076Z,5.93
2018-07-22T12:19:42.967Z,5.97
2018-07-22T12:22:11.896Z,5.67
2018-07-22T12:24:40.803Z,5.70
2018-07-22T12:27:09.745Z,6.13
2018-07-22T12:29:39.651Z,6.70
2018-07-22T12:32:08.578Z,7.70
2018-07-22T12:34:37.513Z,6.47
2018-07-22T12:37:06.551Z,6.03
2018-07-22T12:39:41.050Z,6.50
2018-07-22T12:42:10.269Z,7.03
2018-07-22T12:44:39.170Z,6.77
2018-07-22T12:47:08.125Z,5.77
2018-07-22T12:49:37.040Z,5.53
2018-07-22T12:52:06.071Z,5.90
2018-07-22T12:54:34.950Z,6.50
2018-07-22T12:57:04.029Z,5.83
2018-07-22T12:59:32.914Z,6.10
2018-07-22T13:02:01.798Z,6.03
2018-07-22T13:04:30.775Z,5.50
2018-07-22T13:06:59.702Z,5.90
2018-07-22T13:09:28.641Z,6.13
2018-07-22T13:11:57.544Z,6.63
2018-07-22T13:14:26.514Z,6.20
2018-07-22T13:16:55.419Z,5.97
2018-07-22T13:19:24.544Z,6.20
2018-07-22T13:21:53.543Z,5.43
2018-07-22T13:24:22.449Z,5.60
2018-07-22T13:26:51.421Z,6.13
2018-07-22T13:29:20.404Z,6.10
2018-07-22T13:31:49.338Z,6.03
2018-07-22T13:34:18.293Z,6.27
2018-07-22T13:36:47.265Z,6.13
2018-07-22T13:39:16.190Z,5.90
2018-07-22T13:41:45.192Z,5.93
2018-07-22T13:44:16.228Z,5.73
2018-07-22T13:46:45.149Z,5.53
2018-07-22T13:49:14.168Z,5.90
2018-07-22T13:51:43.132Z,5.47
2018-07-22T13:54:12.120Z,5.90
2018-07-22T13:56:41.025Z,5.50
2018-07-22T13:59:09.935Z,6.20
2018-07-22T14:01:38.863Z,6.27
2018-07-22T14:04:07.901Z,6.13
2018-07-22T14:06:37.061Z,6.10
2018-07-22T14:09:08.589Z,5.77
2018-07-22T14:11:37.711Z,5.73
2018-07-22T14:14:06.645Z,5.67
2018-07-22T14:16:35.794Z,6.27
2018-07-22T14:19:05.006Z,6.40
2018-07-22T14:21:34.102Z,6.80
2018-07-22T14:24:03.024Z,6.93
2018-07-22T14:26:31.965Z,6.60
2018-07-22T14:29:01.076Z,6.73
2018-07-22T14:56:39.509Z,6.93
2018-07-22T15:12:55.019Z,7.53
2018-07-22T15:15:24.608Z,6.87
2018-07-22T15:17:53.624Z,7.73
2018-07-22T15:20:24.553Z,7.80
2018-07-22T15:22:53.496Z,7.83
2018-07-22T15:25:22.432Z,6.73
2018-07-22T15:27:51.327Z,6.97
2018-07-22T15:30:20.445Z,6.70
2018-07-22T15:32:49.365Z,7.40
2018-07-22T15:35:21.533Z,7.03
2018-07-22T15:37:50.456Z,7.70
2018-07-22T15:40:19.337Z,7.67
2018-07-22T15:42:48.443Z,7.10
2018-07-22T15:45:17.319Z,6.97
2018-07-22T15:47:46.233Z,6.90
2018-07-22T15:50:15.196Z,7.03
2018-07-22T15:52:44.115Z,7.30
2018-07-22T15:55:13.139Z,7.13
2018-07-22T15:57:41.972Z,6.47
2018-07-22T16:00:10.921Z,7.20
2018-07-22T16:02:43.421Z,8.10
2018-07-22T16:05:12.323Z,8.70
2018-07-22T16:07:41.327Z,8.03
2018-07-22T16:10:10.272Z,8.50
2018-07-22T16:12:39.201Z,9.17
2018-07-22T16:15:08.218Z,8.27
2018-07-22T16:17:37.140Z,7.83
2018-07-22T16:20:06.306Z,7.60
2018-07-22T16:22:35.522Z,7.60
2018-07-22T16:25:04.588Z,8.40
2018-07-22T16:27:33.541Z,7.90
2018-07-22T16:30:02.539Z,7.30
2018-07-22T16:32:32.425Z,7.53
2018-07-22T16:35:02.185Z,7.40
2018-07-22T16:37:31.302Z,7.77
2018-07-22T16:53:38.867Z,7.20
2018-07-22T16:56:16.903Z,7.80
2018-07-22T16:58:45.892Z,6.83
2018-07-22T17:01:15.098Z,7.97
2018-07-22T17:03:43.977Z,6.77
2018-07-22T17:06:12.998Z,8.00
2018-07-22T17:11:19.755Z,6.43
2018-07-22T17:33:26.249Z,6.93
2018-07-22T17:36:00.617Z,6.90
2018-07-22T17:38:29.582Z,7.00
2018-07-22T17:40:58.486Z,6.97
2018-07-22T17:43:27.411Z,6.73
2018-07-22T17:45:56.367Z,7.17
2018-07-22T17:56:43.692Z,7.13
2018-07-22T17:59:12.686Z,8.07
2018-07-22T18:01:41.557Z,7.20
2018-07-22T18:04:10.509Z,7.20
2018-07-22T18:06:39.445Z,7.07
2018-07-22T18:09:08.933Z,7.73
2018-07-22T18:11:38.017Z,7.60
2018-07-22T18:14:07.005Z,6.90
2018-07-22T18:16:36.296Z,7.13
2018-07-22T18:19:05.240Z,6.87
2018-07-22T18:21:34.309Z,7.07
2018-07-22T18:24:03.219Z,8.00
2018-07-22T18:26:32.141Z,8.30
2018-07-22T18:29:01.192Z,8.33
2018-07-22T18:31:30.104Z,7.97
2018-07-22T18:33:59.002Z,7.67
2018-07-22T18:36:27.898Z,7.03
2018-07-22T18:38:56.863Z,6.83
2018-07-22T18:41:25.807Z,7.50
2018-07-22T18:43:54.751Z,7.20
2018-07-22T18:46:23.663Z,7.10
2018-07-22T18:48:56.464Z,6.73
2018-07-22T18:51:25.481Z,6.00
2018-07-22T18:53:54.574Z,5.73
2018-07-22T18:56:23.615Z,5.77
2018-07-22T18:58:52.582Z,4.83
2018-07-22T19:01:21.676Z,4.90
2018-07-22T19:03:50.640Z,4.93
2018-07-22T19:06:19.690Z,4.43
2018-07-22T19:08:48.570Z,4.37
2018-07-22T19:11:21.957Z,4.23
2018-07-22T19:13:50.848Z,4.10
2018-07-22T19:16:19.928Z,3.80
2018-07-22T19:18:49.068Z,3.80
2018-07-22T19:21:17.983Z,4.07
2018-07-22T19:23:46.881Z,3.97
2018-07-22T19:26:15.776Z,4.00
2018-07-22T19:28:44.726Z,4.00
2018-07-22T19:31:13.639Z,4.07
2018-07-22T19:33:42.576Z,3.90
2018-07-22T19:36:11.723Z,3.73
2018-07-22T19:38:40.893Z,3.60
2018-07-22T19:41:10.102Z,3.40
2018-07-22T19:43:39.330Z,3.50
2018-07-22T19:46:08.333Z,3.87
2018-07-22T19:48:37.255Z,3.73
2018-07-22T19:51:06.281Z,3.43
2018-07-22T19:53:35.201Z,3.77
2018-07-22T19:56:04.102Z,3.37
2018-07-22T20:34:15.449Z,2.97
2018-07-22T20:36:44.412Z,3.20
2018-07-22T20:39:13.369Z,3.77
2018-07-22T20:41:42.535Z,3.40
2018-07-22T20:44:11.441Z,3.20
2018-07-22T20:46:40.359Z,3.10
2018-07-22T20:49:09.303Z,3.70
2018-07-22T21:02:45.137Z,3.47
2018-07-22T21:05:14.051Z,3.33
2018-07-22T21:07:42.930Z,3.20
2018-07-22T21:10:11.823Z,3.40
2018-07-22T21:12:53.115Z,3.63
2018-07-22T21:15:22.085Z,3.50
2018-07-22T21:17:51.685Z,3.90
2018-07-22T21:20:21.388Z,3.57
2018-07-22T21:22:50.287Z,4.50
2018-07-22T21:25:19.597Z,4.20
2018-07-22T21:27:48.495Z,4.30
2018-07-22T21:30:17.699Z,4.40
2018-07-22T21:32:46.600Z,4.67
2018-07-22T21:35:15.543Z,4.47
2018-07-22T21:37:44.432Z,4.80
2018-07-22T21:40:13.440Z,4.60
2018-07-22T21:42:42.413Z,5.00
2018-07-22T21:45:11.296Z,5.67
2018-07-22T21:47:40.243Z,5.13
2018-07-22T21:50:09.231Z,5.00
2018-07-22T21:52:38.139Z,4.80
2018-07-22T21:55:07.206Z,4.80
2018-07-22T21:57:36.513Z,5.07
2018-07-22T22:00:16.636Z,5.47
2018-07-22T22:02:45.574Z,5.63
2018-07-22T22:05:14.472Z,5.40
2018-07-22T22:07:43.493Z,5.27
2018-07-22T22:10:12.502Z,4.70
2018-07-22T22:12:41.494Z,4.80
2018-07-22T22:15:15.793Z,5.03
2018-07-22T22:17:44.720Z,4.90
2018-07-22T22:20:13.777Z,4.60
2018-07-22T22:22:42.665Z,4.80
2018-07-22T22:25:11.624Z,4.97
2018-07-22T22:27:40.599Z,4.90
2018-07-22T22:30:11.745Z,4.80
2018-07-22T22:32:41.217Z,5.17
2018-07-22T22:35:10.492Z,4.97
2018-07-22T22:37:40.218Z,5.23
2018-07-22T22:40:09.580Z,5.47
2018-07-22T22:42:38.663Z,4.73
2018-07-22T22:45:07.598Z,5.23
2018-07-22T22:47:36.561Z,5.67
2018-07-22T22:50:05.561Z,5.20
2018-07-22T22:52:34.463Z,4.80
2018-07-22T22:55:04.087Z,4.80
2018-07-22T22:57:33.384Z,5.20
2018-07-22T23:00:02.607Z,5.03
2018-07-22T23:02:34.921Z,4.97
2018-07-22T23:05:04.806Z,4.67
2018-07-22T23:07:34.028Z,4.80
2018-07-22T23:10:03.234Z,5.03
2018-07-22T23:12:32.138Z,4.80
2018-07-22T23:15:01.065Z,5.03
2018-07-22T23:17:29.986Z,5.27
2018-07-22T23:19:58.889Z,4.53
2018-07-22T23:22:27.855Z,5.27
2018-07-22T23:24:57.029Z,5.17
2018-07-22T23:27:25.958Z,5.13
2018-07-22T23:29:54.870Z,5.10
2018-07-22T23:32:23.744Z,5.13
2018-07-22T23:34:52.629Z,5.50
2018-07-22T23:37:21.562Z,5.10
2018-07-22T23:39:50.450Z,5.30
2018-07-22T23:42:19.368Z,5.17
2018-07-22T23:44:48.295Z,5.27
2018-07-22T23:47:17.278Z,4.93
2018-07-22T23:49:46.173Z,5.30
2018-07-22T23:52:15.137Z,5.33
2018-07-22T23:54:44.248Z,5.40
2018-07-22T23:57:13.187Z,5.83
2018-07-22T23:59:42.075Z,5.87
